Etusivu
METAR-TAF:

METAR-TAF

Lentoasemat :

Changsha, Kiina

Leveyspiiri: 28-11N, Pituuspiiri: 113-13E, korkeus merenpinnasta: 66 m

Tämänhetkinen sää

Tämä raportti tehtiin 16 minuuttia sitten, kello 09.00 UTC
Tuuli 8 kn pohjoisesta
Lämpötila 23°C
Kosteus 53%
Ilmanpaine 1014 hPa
Näkyvyys 10 km tai enemmän
ei pilviä alle 1500 m:ssä eikä cumulonimbus-pilviä

METAR: ZGHA 200900Z 36004MPS CAVOK 23/13 Q1014 NOSIG

Aika: 17:16 (09:16 UTC)

Sääennuste

Tämä raportti tehtiin 6 tuntia ja 45 minuuttia sitten, kello 02.31 UTC
Ennuste voimassa 20. päivästä klo 06 UTC - 21. päivään klo 06 UTC
Tuuli 8 kn pohjoisesta
Näkyvyys: 5000 m
Hajonneita pilviä 2000 ft:n korkeudessa
utua

TAF: ZGHA 200231Z 2006/2106 35004MPS 5000 BR BKN020 TX24/2007Z TN17/2022Z

Säähavainnot ja -ennusteet yli 4000 lentoasemalta (METAR- ja TAF-raportit).

Käytössä olevat sääasemat on merkitty karttaan keltaisilla ja punaisilla pisteillä.

Aseta hiiri pisteen päälle nähdäksesi sääaseman nimen.

Klikkaa sitten nähdäksesi säähavainnot ja -ennusteet.

Kartan vaihtaminen: klikkaa mustalla rastilla varustettuja vihreitä pisteitä, niin voit zoomata sisään; viivalla varustettua vihreää pistettä, niin voit zoomata ulos tai vihreitä nuolia, niin pääset viereisille kartoille.


METAR-TAF: